sensor_id;sensor_type;location;lat;lon;timestamp;pressure;altitude;pressure_sealevel;temperature;humidity
73151;BME280;61354;50.758;6.106;2023-08-06T00:00:14;97931.28;;;13.66;100.00
73151;BME280;61354;50.758;6.106;2023-08-06T00:02:40;97935.66;;;13.64;100.00
73151;BME280;61354;50.758;6.106;2023-08-06T00:05:06;97930.91;;;13.64;100.00
73151;BME280;61354;50.758;6.106;2023-08-06T00:07:31;97944.03;;;13.67;100.00
73151;BME280;61354;50.758;6.106;2023-08-06T00:09:57;97926.47;;;13.71;100.00
73151;BME280;61354;50.758;6.106;2023-08-06T00:12:24;97932.41;;;13.76;100.00
73151;BME280;61354;50.758;6.106;2023-08-06T00:14:51;97927.25;;;13.71;100.00
73151;BME280;61354;50.758;6.106;2023-08-06T00:17:17;97932.81;;;13.75;100.00
73151;BME280;61354;50.758;6.106;2023-08-06T00:19:42;97923.66;;;13.74;100.00
73151;BME280;61354;50.758;6.106;2023-08-06T00:22:08;97921.31;;;13.69;100.00
73151;BME280;61354;50.758;6.106;2023-08-06T00:24:34;97921.69;;;13.67;100.00
73151;BME280;61354;50.758;6.106;2023-08-06T00:27:00;97919.78;;;13.61;100.00
73151;BME280;61354;50.758;6.106;2023-08-06T00:29:25;97911.75;;;13.66;100.00
73151;BME280;61354;50.758;6.106;2023-08-06T00:31:51;97913.78;;;13.62;100.00
73151;BME280;61354;50.758;6.106;2023-08-06T00:34:16;97904.22;;;13.60;100.00
73151;BME280;61354;50.758;6.106;2023-08-06T00:36:42;97915.34;;;13.63;100.00
73151;BME280;61354;50.758;6.106;2023-08-06T00:39:08;97914.59;;;13.59;100.00
73151;BME280;61354;50.758;6.106;2023-08-06T00:41:33;97914.97;;;13.61;100.00
73151;BME280;61354;50.758;6.106;2023-08-06T00:43:59;97915.00;;;13.54;100.00
73151;BME280;61354;50.758;6.106;2023-08-06T00:46:24;97914.25;;;13.50;100.00
73151;BME280;61354;50.758;6.106;2023-08-06T00:48:50;97902.75;;;13.41;100.00
73151;BME280;61354;50.758;6.106;2023-08-06T00:51:16;97907.91;;;13.42;100.00
73151;BME280;61354;50.758;6.106;2023-08-06T00:53:42;97908.69;;;13.43;100.00
73151;BME280;61354;50.758;6.106;2023-08-06T00:56:09;97907.59;;;13.30;100.00
73151;BME280;61354;50.758;6.106;2023-08-06T00:58:36;97914.72;;;13.34;100.00
73151;BME280;61354;50.758;6.106;2023-08-06T01:01:02;97914.78;;;13.24;100.00
73151;BME280;61354;50.758;6.106;2023-08-06T01:03:31;97920.38;;;13.16;100.00
73151;BME280;61354;50.758;6.106;2023-08-06T01:05:57;97923.59;;;13.04;100.00
73151;BME280;61354;50.758;6.106;2023-08-06T01:08:50;97921.16;;;13.17;100.00
73151;BME280;61354;50.758;6.106;2023-08-06T01:11:47;97919.50;;;13.34;100.00
73151;BME280;61354;50.758;6.106;2023-08-06T01:14:32;97919.13;;;13.32;100.00
73151;BME280;61354;50.758;6.106;2023-08-06T01:17:01;97923.06;;;13.38;100.00
73151;BME280;61354;50.758;6.106;2023-08-06T01:19:26;97919.44;;;13.48;100.00
73151;BME280;61354;50.758;6.106;2023-08-06T01:21:52;97928.97;;;13.54;100.00
73151;BME280;61354;50.758;6.106;2023-08-06T01:24:18;97918.69;;;13.40;100.00
73151;BME280;61354;50.758;6.106;2023-08-06T01:26:55;97915.47;;;13.42;100.00
73151;BME280;61354;50.758;6.106;2023-08-06T01:29:56;97917.91;;;13.40;100.00
73151;BME280;61354;50.758;6.106;2023-08-06T01:32:23;97910.78;;;13.32;100.00
73151;BME280;61354;50.758;6.106;2023-08-06T01:34:50;97908.31;;;13.45;100.00
73151;BME280;61354;50.758;6.106;2023-08-06T01:37:17;97900.31;;;13.50;100.00
73151;BME280;61354;50.758;6.106;2023-08-06T01:39:43;97905.50;;;13.48;100.00
73151;BME280;61354;50.758;6.106;2023-08-06T01:42:09;97898.28;;;13.54;100.00
73151;BME280;61354;50.758;6.106;2023-08-06T01:44:34;97901.06;;;13.54;100.00
73151;BME280;61354;50.758;6.106;2023-08-06T01:47:00;97893.50;;;13.51;100.00
73151;BME280;61354;50.758;6.106;2023-08-06T01:49:25;97896.31;;;13.51;100.00
73151;BME280;61354;50.758;6.106;2023-08-06T01:51:51;97894.69;;;13.57;100.00
73151;BME280;61354;50.758;6.106;2023-08-06T01:54:17;97891.84;;;13.64;100.00
73151;BME280;61354;50.758;6.106;2023-08-06T01:56:42;97893.91;;;13.57;100.00
73151;BME280;61354;50.758;6.106;2023-08-06T01:59:08;97889.06;;;13.64;100.00
73151;BME280;61354;50.758;6.106;2023-08-06T02:01:33;97884.25;;;13.68;100.00
73151;BME280;61354;50.758;6.106;2023-08-06T02:04:02;97891.41;;;13.70;100.00
73151;BME280;61354;50.758;6.106;2023-08-06T02:06:27;97893.13;;;13.53;100.00
73151;BME280;61354;50.758;6.106;2023-08-06T02:08:53;97891.47;;;13.62;100.00
73151;BME280;61354;50.758;6.106;2023-08-06T02:11:18;97895.47;;;13.58;100.00
73151;BME280;61354;50.758;6.106;2023-08-06T02:13:45;97885.84;;;13.70;100.00
73151;BME280;61354;50.758;6.106;2023-08-06T02:16:11;97884.69;;;13.60;100.00
73151;BME280;61354;50.758;6.106;2023-08-06T02:18:36;97885.09;;;13.58;100.00
73151;BME280;61354;50.758;6.106;2023-08-06T02:21:02;97888.25;;;13.64;100.00
73151;BME280;61354;50.758;6.106;2023-08-06T02:23:28;97878.72;;;13.61;100.00
73151;BME280;61354;50.758;6.106;2023-08-06T02:26:00;97884.69;;;13.60;100.00
73151;BME280;61354;50.758;6.106;2023-08-06T02:28:26;97878.75;;;13.58;100.00
73151;BME280;61354;50.758;6.106;2023-08-06T02:30:52;97883.06;;;13.70;100.00
73151;BME280;61354;50.758;6.106;2023-08-06T02:33:17;97880.25;;;13.70;100.00
73151;BME280;61354;50.758;6.106;2023-08-06T02:35:43;97869.13;;;13.66;100.00
73151;BME280;61354;50.758;6.106;2023-08-06T02:38:09;97867.94;;;13.63;100.00
73151;BME280;61354;50.758;6.106;2023-08-06T02:40:34;97865.53;;;13.65;100.00
73151;BME280;61354;50.758;6.106;2023-08-06T02:43:00;97859.16;;;13.68;100.00
73151;BME280;61354;50.758;6.106;2023-08-06T02:45:25;97860.78;;;13.62;100.00
73151;BME280;61354;50.758;6.106;2023-08-06T02:47:51;97863.56;;;13.62;100.00
73151;BME280;61354;50.758;6.106;2023-08-06T02:50:16;97863.19;;;13.60;100.00
73151;BME280;61354;50.758;6.106;2023-08-06T02:52:42;97855.19;;;13.62;100.00
73151;BME280;61354;50.758;6.106;2023-08-06T02:55:07;97850.03;;;13.64;100.00
73151;BME280;61354;50.758;6.106;2023-08-06T02:57:33;97851.59;;;13.65;100.00
73151;BME280;61354;50.758;6.106;2023-08-06T02:59:58;97852.44;;;13.59;100.00
73151;BME280;61354;50.758;6.106;2023-08-06T03:02:24;97847.59;;;13.66;100.00
73151;BME280;61354;50.758;6.106;2023-08-06T03:04:50;97841.22;;;13.70;100.00
73151;BME280;61354;50.758;6.106;2023-08-06T03:07:15;97837.19;;;13.71;100.00
73151;BME280;61354;50.758;6.106;2023-08-06T03:09:41;97842.78;;;13.71;100.00
73151;BME280;61354;50.758;6.106;2023-08-06T03:12:06;97843.19;;;13.69;100.00
73151;BME280;61354;50.758;6.106;2023-08-06T03:14:32;97842.41;;;13.68;100.00
73151;BME280;61354;50.758;6.106;2023-08-06T03:16:58;97837.63;;;13.69;100.00
73151;BME280;61354;50.758;6.106;2023-08-06T03:19:23;97830.84;;;13.70;100.00
73151;BME280;61354;50.758;6.106;2023-08-06T03:21:49;97841.22;;;13.70;100.00
73151;BME280;61354;50.758;6.106;2023-08-06T03:24:14;97836.44;;;13.66;100.00
73151;BME280;61354;50.758;6.106;2023-08-06T03:26:40;97836.00;;;13.68;100.00
73151;BME280;61354;50.758;6.106;2023-08-06T03:29:05;97834.91;;;13.58;100.00
73151;BME280;61354;50.758;6.106;2023-08-06T03:31:31;97852.81;;;13.64;100.00
73151;BME280;61354;50.758;6.106;2023-08-06T03:33:56;97840.00;;;13.67;100.00
73151;BME280;61354;50.758;6.106;2023-08-06T03:36:22;97845.56;;;13.71;100.00
73151;BME280;61354;50.758;6.106;2023-08-06T03:38:47;97838.41;;;13.70;100.00
73151;BME280;61354;50.758;6.106;2023-08-06T03:41:13;97841.97;;;13.74;100.00
73151;BME280;61354;50.758;6.106;2023-08-06T03:43:38;97837.19;;;13.71;100.00
73151;BME280;61354;50.758;6.106;2023-08-06T03:46:04;97830.03;;;13.73;100.00
73151;BME280;61354;50.758;6.106;2023-08-06T03:48:29;97833.97;;;13.76;100.00
73151;BME280;61354;50.758;6.106;2023-08-06T03:50:55;97837.19;;;13.71;100.00
73151;BME280;61354;50.758;6.106;2023-08-06T03:53:21;97836.84;;;13.68;100.00
73151;BME280;61354;50.758;6.106;2023-08-06T03:55:46;97834.00;;;13.72;100.00
73151;BME280;61354;50.758;6.106;2023-08-06T03:58:12;97828.38;;;13.79;100.00
73151;BME280;61354;50.758;6.106;2023-08-06T04:00:37;97829.97;;;13.77;100.00
73151;BME280;61354;50.758;6.106;2023-08-06T04:03:03;97834.72;;;13.80;100.00
73151;BME280;61354;50.758;6.106;2023-08-06T04:05:31;97835.13;;;13.82;100.00
73151;BME280;61354;50.758;6.106;2023-08-06T04:07:57;97833.91;;;13.83;100.00
73151;BME280;61354;50.758;6.106;2023-08-06T04:10:23;97834.72;;;13.80;100.00
73151;BME280;61354;50.758;6.106;2023-08-06T04:12:48;97832.34;;;13.82;100.00
73151;BME280;61354;50.758;6.106;2023-08-06T04:15:14;97846.31;;;13.78;100.00
73151;BME280;61354;50.758;6.106;2023-08-06T04:17:39;97839.53;;;13.76;100.00
73151;BME280;61354;50.758;6.106;2023-08-06T04:20:05;97839.53;;;13.76;100.00
73151;BME280;61354;50.758;6.106;2023-08-06T04:22:31;97844.31;;;13.79;100.00
73151;BME280;61354;50.758;6.106;2023-08-06T04:24:57;97845.94;;;13.73;100.00
73151;BME280;61354;50.758;6.106;2023-08-06T04:27:22;97844.38;;;13.68;100.00
73151;BME280;61354;50.758;6.106;2023-08-06T04:29:48;97838.81;;;13.68;100.00
73151;BME280;61354;50.758;6.106;2023-08-06T04:32:13;97849.63;;;13.62;100.00
73151;BME280;61354;50.758;6.106;2023-08-06T04:34:39;97850.03;;;13.61;100.00
73151;BME280;61354;50.758;6.106;2023-08-06T04:37:05;97853.63;;;13.58;100.00
73151;BME280;61354;50.758;6.106;2023-08-06T04:39:30;97850.50;;;13.52;100.00
73151;BME280;61354;50.758;6.106;2023-08-06T04:41:56;97855.63;;;13.57;100.00
73151;BME280;61354;50.758;6.106;2023-08-06T04:44:25;97851.63;;;13.58;100.00
73151;BME280;61354;50.758;6.106;2023-08-06T04:46:51;97853.25;;;13.56;100.00
73151;BME280;61354;50.758;6.106;2023-08-06T04:49:18;97855.63;;;13.57;100.00
73151;BME280;61354;50.758;6.106;2023-08-06T04:51:43;97860.03;;;13.55;100.00
73151;BME280;61354;50.758;6.106;2023-08-06T04:54:09;97864.38;;;13.59;100.00
73151;BME280;61354;50.758;6.106;2023-08-06T04:56:35;97863.56;;;13.62;100.00
73151;BME280;61354;50.758;6.106;2023-08-06T04:59:00;97856.44;;;13.54;100.00
73151;BME280;61354;50.758;6.106;2023-08-06T05:01:26;97869.94;;;13.59;100.00
73151;BME280;61354;50.758;6.106;2023-08-06T05:03:52;97870.78;;;13.56;100.00
73151;BME280;61354;50.758;6.106;2023-08-06T05:06:17;97873.16;;;13.61;100.00
73151;BME280;61354;50.758;6.106;2023-08-06T05:08:43;97866.78;;;13.61;100.00
73151;BME280;61354;50.758;6.106;2023-08-06T05:11:09;97867.53;;;13.65;100.00
73151;BME280;61354;50.758;6.106;2023-08-06T05:13:35;97877.09;;;13.64;100.00
73151;BME280;61354;50.758;6.106;2023-08-06T05:16:00;97879.47;;;13.69;100.00
73151;BME280;61354;50.758;6.106;2023-08-06T05:18:26;97871.56;;;13.60;100.00
73151;BME280;61354;50.758;6.106;2023-08-06T05:20:51;97881.88;;;13.63;100.00
73151;BME280;61354;50.758;6.106;2023-08-06T05:23:17;97882.63;;;13.71;100.00
73151;BME280;61354;50.758;6.106;2023-08-06T05:25:42;97884.94;;;13.80;100.00
73151;BME280;61354;50.758;6.106;2023-08-06T05:28:08;97885.69;;;13.87;100.00
73151;BME280;61354;50.758;6.106;2023-08-06T05:30:34;97884.94;;;13.80;100.00
73151;BME280;61354;50.758;6.106;2023-08-06T05:33:02;97892.13;;;13.81;100.00
73151;BME280;61354;50.758;6.106;2023-08-06T05:35:28;97896.50;;;13.82;100.00
73151;BME280;61354;50.758;6.106;2023-08-06T05:37:53;97902.44;;;13.87;100.00
73151;BME280;61354;50.758;6.106;2023-08-06T05:40:19;97902.84;;;13.89;100.00
73151;BME280;61354;50.758;6.106;2023-08-06T05:42:44;97904.88;;;13.82;100.00
73151;BME280;61354;50.758;6.106;2023-08-06T05:45:10;97914.41;;;13.84;100.00
73151;BME280;61354;50.758;6.106;2023-08-06T05:47:35;97912.03;;;13.83;100.00
73151;BME280;61354;50.758;6.106;2023-08-06T05:50:01;97915.66;;;13.80;100.00
73151;BME280;61354;50.758;6.106;2023-08-06T05:52:26;97909.59;;;13.88;100.00
73151;BME280;61354;50.758;6.106;2023-08-06T05:54:52;97916.03;;;13.85;100.00
73151;BME280;61354;50.758;6.106;2023-08-06T05:57:18;97924.75;;;13.91;100.00
73151;BME280;61354;50.758;6.106;2023-08-06T05:59:43;97924.31;;;13.92;100.00
73151;BME280;61354;50.758;6.106;2023-08-06T06:02:09;97922.28;;;13.97;100.00
73151;BME280;61354;50.758;6.106;2023-08-06T06:04:35;97921.94;;;13.95;100.00
73151;BME280;61354;50.758;6.106;2023-08-06T06:07:00;97923.19;;;13.86;100.00
73151;BME280;61354;50.758;6.106;2023-08-06T06:09:26;97933.56;;;13.86;100.00
73151;BME280;61354;50.758;6.106;2023-08-06T06:11:52;97930.38;;;13.84;100.00
73151;BME280;61354;50.758;6.106;2023-08-06T06:14:18;97933.47;;;13.93;100.00
73151;BME280;61354;50.758;6.106;2023-08-06T06:16:44;97943.03;;;13.96;100.00
73151;BME280;61354;50.758;6.106;2023-08-06T06:19:11;97940.69;;;13.94;100.00
73151;BME280;61354;50.758;6.106;2023-08-06T06:21:36;97945.41;;;13.97;100.00
73151;BME280;61354;50.758;6.106;2023-08-06T06:24:03;97943.03;;;13.99;100.00
73151;BME280;61354;50.758;6.106;2023-08-06T06:26:30;97948.94;;;14.05;100.00
73151;BME280;61354;50.758;6.106;2023-08-06T06:28:55;97949.31;;;14.10;100.00
73151;BME280;61354;50.758;6.106;2023-08-06T06:31:21;97949.34;;;14.07;100.00
73151;BME280;61354;50.758;6.106;2023-08-06T06:33:47;97955.72;;;14.07;100.00
73151;BME280;61354;50.758;6.106;2023-08-06T06:36:12;97959.72;;;14.06;100.00
73151;BME280;61354;50.758;6.106;2023-08-06T06:38:38;97965.22;;;14.17;100.00
73151;BME280;61354;50.758;6.106;2023-08-06T06:41:03;97965.31;;;14.06;100.00
73151;BME280;61354;50.758;6.106;2023-08-06T06:43:29;97978.09;;;14.00;100.00
73151;BME280;61354;50.758;6.106;2023-08-06T06:45:59;97976.13;;;13.97;100.00
73151;BME280;61354;50.758;6.106;2023-08-06T06:48:26;97982.06;;;14.06;100.00
73151;BME280;61354;50.758;6.106;2023-08-06T06:50:52;97978.09;;;14.00;100.00
73151;BME280;61354;50.758;6.106;2023-08-06T06:53:17;97979.63;;;14.08;100.00
73151;BME280;61354;50.758;6.106;2023-08-06T06:55:43;97979.66;;;14.05;100.00
73151;BME280;61354;50.758;6.106;2023-08-06T06:58:09;97978.13;;;13.93;100.00
73151;BME280;61354;50.758;6.106;2023-08-06T07:00:37;97986.09;;;14.02;100.00
73151;BME280;61354;50.758;6.106;2023-08-06T07:03:03;97986.81;;;14.09;100.00
73151;BME280;61354;50.758;6.106;2023-08-06T07:05:29;97989.19;;;14.14;100.00
73151;BME280;61354;50.758;6.106;2023-08-06T07:07:54;97985.97;;;14.16;100.00
73151;BME280;61354;50.758;6.106;2023-08-06T07:10:20;97989.13;;;14.18;100.00
73151;BME280;61354;50.758;6.106;2023-08-06T07:12:45;97991.44;;;14.30;100.00
73151;BME280;61354;50.758;6.106;2023-08-06T07:15:11;97994.31;;;14.20;100.00
73151;BME280;61354;50.758;6.106;2023-08-06T07:17:37;97995.53;;;14.18;100.00
73151;BME280;61354;50.758;6.106;2023-08-06T07:20:03;98002.28;;;14.17;100.00
73151;BME280;61354;50.758;6.106;2023-08-06T07:22:29;97997.94;;;14.13;100.00
73151;BME280;61354;50.758;6.106;2023-08-06T07:24:55;98008.31;;;14.12;100.00
73151;BME280;61354;50.758;6.106;2023-08-06T07:27:24;98015.59;;;13.99;100.00
73151;BME280;61354;50.758;6.106;2023-08-06T07:29:50;98023.22;;;13.91;100.00
73151;BME280;61354;50.758;6.106;2023-08-06T07:32:16;98027.13;;;14.01;100.00
73151;BME280;61354;50.758;6.106;2023-08-06T07:34:41;98031.56;;;13.95;100.00
73151;BME280;61354;50.758;6.106;2023-08-06T07:37:07;98025.25;;;13.77;100.00
73151;BME280;61354;50.758;6.106;2023-08-06T07:39:32;98032.81;;;13.87;100.00
73151;BME280;61354;50.758;6.106;2023-08-06T07:41:58;98040.38;;;13.90;100.00
73151;BME280;61354;50.758;6.106;2023-08-06T07:44:24;98048.34;;;13.88;100.00
73151;BME280;61354;50.758;6.106;2023-08-06T07:46:49;98064.47;;;13.41;100.00
73151;BME280;61354;50.758;6.106;2023-08-06T07:49:15;98050.56;;;13.34;100.00
73151;BME280;61354;50.758;6.106;2023-08-06T07:51:41;98059.31;;;13.36;100.00
73151;BME280;61354;50.758;6.106;2023-08-06T07:54:06;98064.13;;;13.28;100.00
73151;BME280;61354;50.758;6.106;2023-08-06T07:56:32;98067.72;;;13.25;100.00
73151;BME280;61354;50.758;6.106;2023-08-06T07:58:58;98080.44;;;13.19;100.00
73151;BME280;61354;50.758;6.106;2023-08-06T08:01:23;98082.81;;;13.10;100.00
73151;BME280;61354;50.758;6.106;2023-08-06T08:03:49;98089.59;;;13.12;100.00
73151;BME280;61354;50.758;6.106;2023-08-06T08:06:15;98089.22;;;13.00;100.00
73151;BME280;61354;50.758;6.106;2023-08-06T08:08:40;98100.38;;;12.82;100.00
73151;BME280;61354;50.758;6.106;2023-08-06T08:11:06;98106.72;;;12.93;100.00
73151;BME280;61354;50.758;6.106;2023-08-06T08:13:31;98114.69;;;12.84;100.00
73151;BME280;61354;50.758;6.106;2023-08-06T08:16:01;98133.41;;;12.83;100.00
73151;BME280;61354;50.758;6.106;2023-08-06T08:18:26;98140.19;;;12.86;100.00
73151;BME280;61354;50.758;6.106;2023-08-06T08:20:52;98130.59;;;12.73;100.00
73151;BME280;61354;50.758;6.106;2023-08-06T08:23:18;98145.72;;;12.72;100.00
73151;BME280;61354;50.758;6.106;2023-08-06T08:25:43;98152.91;;;12.80;100.00
73151;BME280;61354;50.758;6.106;2023-08-06T08:28:09;98144.16;;;12.71;100.00
73151;BME280;61354;50.758;6.106;2023-08-06T08:30:34;98149.72;;;12.78;100.00
73151;BME280;61354;50.758;6.106;2023-08-06T08:33:00;98158.91;;;12.82;100.00
73151;BME280;61354;50.758;6.106;2023-08-06T08:35:25;98157.69;;;12.86;100.00
73151;BME280;61354;50.758;6.106;2023-08-06T08:37:51;98158.91;;;12.82;100.00
73151;BME280;61354;50.758;6.106;2023-08-06T08:40:17;98158.06;;;12.85;100.00
73151;BME280;61354;50.758;6.106;2023-08-06T08:42:43;98164.44;;;12.92;100.00
73151;BME280;61354;50.758;6.106;2023-08-06T08:45:13;98172.81;;;12.92;100.00
73151;BME280;61354;50.758;6.106;2023-08-06T08:47:43;98179.97;;;12.83;100.00
73151;BME280;61354;50.758;6.106;2023-08-06T08:50:09;98184.75;;;12.93;100.00
73151;BME280;61354;50.758;6.106;2023-08-06T08:52:38;98191.13;;;12.83;100.00
73151;BME280;61354;50.758;6.106;2023-08-06T08:55:06;98195.09;;;12.71;100.00
73151;BME280;61354;50.758;6.106;2023-08-06T08:57:32;98186.34;;;12.87;100.00
73151;BME280;61354;50.758;6.106;2023-08-06T08:59:58;98207.78;;;12.68;100.00
73151;BME280;61354;50.758;6.106;2023-08-06T09:02:25;98209.41;;;12.77;100.00
73151;BME280;61354;50.758;6.106;2023-08-06T09:04:52;98211.00;;;12.71;100.00
73151;BME280;61354;50.758;6.106;2023-08-06T09:07:20;98219.75;;;12.80;100.00
73151;BME280;61354;50.758;6.106;2023-08-06T09:09:49;98226.13;;;12.66;100.00
73151;BME280;61354;50.758;6.106;2023-08-06T09:12:16;98218.19;;;12.79;100.00
73151;BME280;61354;50.758;6.106;2023-08-06T09:14:42;98224.13;;;12.81;100.00
73151;BME280;61354;50.758;6.106;2023-08-06T09:17:08;98230.13;;;12.83;100.00
73151;BME280;61354;50.758;6.106;2023-08-06T09:19:36;98258.78;;;12.80;100.00
73151;BME280;61354;50.758;6.106;2023-08-06T09:22:01;98252.44;;;12.86;100.00
73151;BME280;61354;50.758;6.106;2023-08-06T09:24:27;98239.69;;;12.82;100.00
73151;BME280;61354;50.758;6.106;2023-08-06T09:26:53;98256.81;;;12.91;100.00
73151;BME280;61354;50.758;6.106;2023-08-06T09:29:19;98266.78;;;12.99;100.00
73151;BME280;61354;50.758;6.106;2023-08-06T09:34:15;98268.38;;;13.04;100.00
73151;BME280;61354;50.758;6.106;2023-08-06T09:36:52;98265.56;;;12.93;100.00
73151;BME280;61354;50.758;6.106;2023-08-06T09:39:20;98284.31;;;13.03;100.00
73151;BME280;61354;50.758;6.106;2023-08-06T09:41:46;98279.13;;;12.94;100.00
73151;BME280;61354;50.758;6.106;2023-08-06T09:44:19;98281.47;;;12.89;100.00
73151;BME280;61354;50.758;6.106;2023-08-06T09:46:54;98288.28;;;12.95;100.00
73151;BME280;61354;50.758;6.106;2023-08-06T09:49:22;98287.09;;;13.10;100.00
73151;BME280;61354;50.758;6.106;2023-08-06T09:51:47;98299.03;;;13.04;100.00
73151;BME280;61354;50.758;6.106;2023-08-06T09:54:17;98288.34;;;13.24;100.00
73151;BME280;61354;50.758;6.106;2023-08-06T09:56:44;98297.91;;;13.26;100.00
73151;BME280;61354;50.758;6.106;2023-08-06T09:59:09;98293.53;;;13.36;100.00
73151;BME280;61354;50.758;6.106;2023-08-06T10:01:38;98301.91;;;13.32;100.00
73151;BME280;61354;50.758;6.106;2023-08-06T10:04:05;98307.41;;;13.22;100.00
73151;BME280;61354;50.758;6.106;2023-08-06T10:06:34;98313.78;;;13.22;100.00
73151;BME280;61354;50.758;6.106;2023-08-06T10:09:01;98319.41;;;13.26;100.00
73151;BME280;61354;50.758;6.106;2023-08-06T10:11:28;98321.34;;;13.14;100.00
73151;BME280;61354;50.758;6.106;2023-08-06T10:14:02;98317.75;;;13.03;100.00
73151;BME280;61354;50.758;6.106;2023-08-06T10:16:29;98324.91;;;13.04;100.00
73151;BME280;61354;50.758;6.106;2023-08-06T10:18:56;98326.50;;;13.09;100.00
73151;BME280;61354;50.758;6.106;2023-08-06T10:21:23;98333.75;;;13.28;100.00
73151;BME280;61354;50.758;6.106;2023-08-06T10:23:54;98330.16;;;13.24;100.00
73151;BME280;61354;50.758;6.106;2023-08-06T10:26:20;98334.56;;;13.32;100.00
73151;BME280;61354;50.758;6.106;2023-08-06T10:28:45;98326.09;;;13.10;100.00
73151;BME280;61354;50.758;6.106;2023-08-06T10:31:11;98335.28;;;13.18;100.00
73151;BME280;61354;50.758;6.106;2023-08-06T10:33:44;98332.97;;;13.38;100.00
73151;BME280;61354;50.758;6.106;2023-08-06T10:36:10;98323.41;;;13.25;100.00
73151;BME280;61354;50.758;6.106;2023-08-06T10:38:47;98332.97;;;13.38;100.00
73151;BME280;61354;50.758;6.106;2023-08-06T10:43:42;98338.16;;;13.50;100.00
73151;BME280;61354;50.758;6.106;2023-08-06T10:46:42;98342.53;;;13.48;100.00
73151;BME280;61354;50.758;6.106;2023-08-06T10:49:08;98337.75;;;13.41;100.00
73151;BME280;61354;50.758;6.106;2023-08-06T10:51:35;98360.88;;;13.45;100.00
73151;BME280;61354;50.758;6.106;2023-08-06T10:54:02;98356.50;;;13.58;100.00
73151;BME280;61354;50.758;6.106;2023-08-06T10:56:28;98350.13;;;13.61;100.00
73151;BME280;61354;50.758;6.106;2023-08-06T10:58:55;98351.34;;;13.60;100.00
73151;BME280;61354;50.758;6.106;2023-08-06T11:01:24;98357.69;;;13.72;100.00
73151;BME280;61354;50.758;6.106;2023-08-06T11:03:50;98352.91;;;13.54;100.00
73151;BME280;61354;50.758;6.106;2023-08-06T11:06:19;98358.47;;;13.47;100.00
73151;BME280;61354;50.758;6.106;2023-08-06T11:08:50;98356.91;;;13.57;100.00
73151;BME280;61354;50.758;6.106;2023-08-06T11:11:17;98356.13;;;13.71;100.00
73151;BME280;61354;50.758;6.106;2023-08-06T11:13:51;98371.25;;;13.62;100.00
73151;BME280;61354;50.758;6.106;2023-08-06T11:16:18;98369.28;;;13.77;100.00
73151;BME280;61354;50.758;6.106;2023-08-06T11:18:44;98364.91;;;13.69;100.00
73151;BME280;61354;50.758;6.106;2023-08-06T11:21:10;98358.91;;;13.63;100.00
73151;BME280;61354;50.758;6.106;2023-08-06T11:23:37;98352.91;;;13.72;100.00
73151;BME280;61354;50.758;6.106;2023-08-06T11:26:03;98364.09;;;13.76;100.00
73151;BME280;61354;50.758;6.106;2023-08-06T11:28:28;98361.69;;;13.56;100.00
73151;BME280;61354;50.758;6.106;2023-08-06T11:30:54;98374.84;;;13.63;100.00
73151;BME280;61354;50.758;6.106;2023-08-06T11:33:26;98364.06;;;13.54;100.00
73151;BME280;61354;50.758;6.106;2023-08-06T11:35:54;98369.22;;;13.38;100.00
73151;BME280;61354;50.758;6.106;2023-08-06T11:38:20;98365.66;;;13.55;100.00
73151;BME280;61354;50.758;6.106;2023-08-06T11:40:47;98365.69;;;13.62;100.00
73151;BME280;61354;50.758;6.106;2023-08-06T11:43:13;98375.63;;;13.63;100.00
73151;BME280;61354;50.758;6.106;2023-08-06T11:45:40;98374.81;;;13.59;100.00
73151;BME280;61354;50.758;6.106;2023-08-06T11:48:06;98378.41;;;13.49;100.00
73151;BME280;61354;50.758;6.106;2023-08-06T11:50:36;98373.19;;;13.30;100.00
73151;BME280;61354;50.758;6.106;2023-08-06T11:53:01;98377.13;;;13.22;100.00
73151;BME280;61354;50.758;6.106;2023-08-06T11:55:28;98383.94;;;13.24;100.00
73151;BME280;61354;50.758;6.106;2023-08-06T11:57:54;98377.91;;;13.18;100.00
73151;BME280;61354;50.758;6.106;2023-08-06T12:00:23;98382.66;;;13.14;100.00
73151;BME280;61354;50.758;6.106;2023-08-06T12:02:50;98394.28;;;13.24;100.00
73151;BME280;61354;50.758;6.106;2023-08-06T12:05:17;98395.78;;;13.10;100.00
73151;BME280;61354;50.758;6.106;2023-08-06T12:07:56;98387.81;;;13.02;100.00
73151;BME280;61354;50.758;6.106;2023-08-06T12:10:25;98398.59;;;13.14;100.00
73151;BME280;61354;50.758;6.106;2023-08-06T12:12:51;98404.16;;;13.03;100.00
73151;BME280;61354;50.758;6.106;2023-08-06T12:15:17;98417.63;;;12.98;100.00
73151;BME280;61354;50.758;6.106;2023-08-06T12:17:43;98414.84;;;12.98;100.00
73151;BME280;61354;50.758;6.106;2023-08-06T12:20:09;98422.06;;;13.02;100.00
73151;BME280;61354;50.758;6.106;2023-08-06T12:22:36;98417.69;;;13.05;100.00
73151;BME280;61354;50.758;6.106;2023-08-06T12:25:08;98424.50;;;13.22;100.00
73151;BME280;61354;50.758;6.106;2023-08-06T12:27:34;98430.97;;;13.33;100.00
73151;BME280;61354;50.758;6.106;2023-08-06T12:30:00;98436.13;;;13.31;100.00
73151;BME280;61354;50.758;6.106;2023-08-06T12:32:26;98427.00;;;13.37;100.00
73151;BME280;61354;50.758;6.106;2023-08-06T12:34:52;98430.63;;;13.52;100.00
73151;BME280;61354;50.758;6.106;2023-08-06T12:37:17;98437.38;;;13.51;100.00
73151;BME280;61354;50.758;6.106;2023-08-06T12:39:43;98438.94;;;13.34;100.00
73151;BME280;61354;50.758;6.106;2023-08-06T12:42:09;98435.72;;;13.29;100.00
73151;BME280;61354;50.758;6.106;2023-08-06T12:44:35;98444.31;;;12.95;100.00
73151;BME280;61354;50.758;6.106;2023-08-06T12:47:01;98452.38;;;13.22;100.00
73151;BME280;61354;50.758;6.106;2023-08-06T12:49:27;98445.28;;;13.24;100.00
73151;BME280;61354;50.758;6.106;2023-08-06T12:51:54;98448.44;;;13.23;100.00